Time;durP1;ratioP1;P1;durP2;ratioP2;P2;SDS_P1;SDS_P2;PMS_P1;PMS_P2;Temp;Humidity;BMP_temperature;BMP_pressure;BME280_temperature;BME280_humidity;BME280_pressure;Samples;Min_cycle;Max_cycle;Signal;HPM_P1;HPM_P2
2020/12/26 00:00:26;;;;;;;5.93;4.17;;;;;;;2.73;100.00;102958.48;1704906;84;26247;-76
2020/12/26 00:02:55;;;;;;;4.17;3.50;;;;;;;2.72;100.00;102956.25;1750248;81;26241;-76
2020/12/26 00:05:25;;;;;;;4.87;3.70;;;;;;;2.52;100.00;102959.13;1704890;82;26381;-76
2020/12/26 00:07:55;;;;;;;5.87;2.87;;;;;;;2.48;100.00;102959.67;1750238;82;26316;-76
2020/12/26 00:10:26;;;;;;;6.97;3.63;;;;;;;2.43;100.00;102955.23;1704753;84;26329;-77
2020/12/26 00:12:56;;;;;;;5.23;3.00;;;;;;;2.42;100.00;102940.66;1691821;85;26235;-76
2020/12/26 00:15:26;;;;;;;5.43;3.27;;;;;;;2.29;100.00;102941.25;1750242;81;26340;-76
2020/12/26 00:17:56;;;;;;;6.43;3.50;;;;;;;2.14;100.00;102944.94;1704789;84;26313;-75
2020/12/26 00:20:25;;;;;;;6.70;3.80;;;;;;;2.17;100.00;102942.69;1750338;81;26233;-75
2020/12/26 00:22:55;;;;;;;4.53;3.47;;;;;;;2.18;100.00;102932.59;1704991;84;26270;-75
2020/12/26 00:25:25;;;;;;;6.10;3.60;;;;;;;2.16;100.00;102944.23;1750305;82;26374;-76
2020/12/26 00:27:55;;;;;;;5.27;3.50;;;;;;;2.44;100.00;102944.06;1705007;83;26321;-76
2020/12/26 00:30:25;;;;;;;8.87;3.77;;;;;;;2.31;100.00;102947.08;1691768;85;26334;-76
2020/12/26 00:32:55;;;;;;;6.10;4.07;;;;;;;2.42;100.00;102950.27;1691917;84;26255;-76
2020/12/26 00:35:25;;;;;;;5.83;3.83;;;;;;;2.26;100.00;102941.63;1750275;82;26331;-75
2020/12/26 00:37:54;;;;;;;8.47;3.93;;;;;;;2.28;100.00;102934.05;1704694;84;26242;-75
2020/12/26 00:40:26;;;;;;;5.53;3.90;;;;;;;2.26;100.00;102933.39;1750166;82;26691;-75
2020/12/26 00:42:57;;;;;;;5.23;3.90;;;;;;;2.23;100.00;102922.77;1704878;84;26282;-75
2020/12/26 00:45:28;;;;;;;8.17;3.50;;;;;;;2.28;100.00;102914.00;1750288;80;26303;-75
2020/12/26 00:47:58;;;;;;;8.10;3.83;;;;;;;2.31;100.00;102917.74;1704817;84;26803;-76
2020/12/26 00:50:27;;;;;;;4.70;3.50;;;;;;;2.27;100.00;102912.28;1750321;81;26260;-76
2020/12/26 00:52:57;;;;;;;9.13;4.13;;;;;;;2.18;100.00;102887.34;1704830;84;26321;-76
2020/12/26 00:55:27;;;;;;;8.10;4.00;;;;;;;2.23;100.00;102886.27;1750215;82;26363;-76
2020/12/26 00:57:57;;;;;;;15.23;7.73;;;;;;;2.18;100.00;102880.49;1704855;84;26744;-75
2020/12/26 01:00:27;;;;;;;11.73;7.30;;;;;;;2.04;100.00;102882.62;1750225;82;26704;-76
2020/12/26 01:02:57;;;;;;;5.60;3.93;;;;;;;2.18;100.00;102871.72;1705086;83;26333;-76
2020/12/26 01:05:26;;;;;;;7.23;4.07;;;;;;;2.29;100.00;102857.62;1691709;83;26286;-76
2020/12/26 01:07:56;;;;;;;4.60;3.73;;;;;;;2.20;100.00;102851.84;1749750;82;26656;-75
2020/12/26 01:10:26;;;;;;;5.40;3.80;;;;;;;2.20;100.00;102857.84;1704825;84;26258;-75
2020/12/26 01:12:56;;;;;;;6.93;3.90;;;;;;;2.19;100.00;102854.25;1750206;82;26249;-75
2020/12/26 01:15:26;;;;;;;6.80;3.80;;;;;;;2.14;100.00;102848.99;1704747;84;26266;-76
2020/12/26 01:17:56;;;;;;;7.33;3.70;;;;;;;2.10;100.00;102850.36;1692018;84;26244;-76
2020/12/26 01:20:25;;;;;;;4.37;3.30;;;;;;;2.13;100.00;102850.88;1750304;81;26703;-75
2020/12/26 01:22:55;;;;;;;5.10;3.70;;;;;;;2.01;100.00;102846.81;1705011;84;26254;-76
2020/12/26 01:25:25;;;;;;;6.03;3.57;;;;;;;2.06;100.00;102832.56;1692148;84;26259;-76
2020/12/26 01:27:55;;;;;;;5.17;3.67;;;;;;;2.03;100.00;102820.09;1750386;81;26713;-77
2020/12/26 01:30:25;;;;;;;5.90;3.47;;;;;;;2.01;100.00;102816.66;1704684;84;26321;-76
2020/12/26 01:32:55;;;;;;;5.00;3.57;;;;;;;2.01;100.00;102807.06;1691749;84;26251;-76
2020/12/26 01:35:25;;;;;;;5.07;3.53;;;;;;;1.96;100.00;102799.93;1750271;82;26714;-76
2020/12/26 01:37:55;;;;;;;4.40;3.40;;;;;;;1.93;100.00;102798.05;1704802;84;26262;-76
2020/12/26 01:40:24;;;;;;;6.33;3.10;;;;;;;1.86;100.00;102783.37;1750337;82;26230;-76
2020/12/26 01:42:55;;;;;;;6.67;3.67;;;;;;;1.87;100.00;102780.97;1704819;84;26266;-76
2020/12/26 01:45:25;;;;;;;5.97;3.63;;;;;;;1.98;100.00;102773.18;1691899;84;26701;-75
2020/12/26 01:47:54;;;;;;;5.60;3.23;;;;;;;2.03;100.00;102774.01;1691594;85;26710;-75
2020/12/26 01:50:24;;;;;;;5.90;3.33;;;;;;;2.25;100.00;102760.31;1750206;82;26316;-76
2020/12/26 01:52:54;;;;;;;6.57;3.93;;;;;;;2.32;100.00;102746.70;1704863;84;26333;-76
2020/12/26 01:55:24;;;;;;;5.33;3.23;;;;;;;2.35;100.00;102742.23;1750253;82;26308;-76
2020/12/26 01:57:55;;;;;;;5.80;3.60;;;;;;;2.47;100.00;102732.52;1704820;84;26319;-76
2020/12/26 02:00:25;;;;;;;9.07;4.33;;;;;;;2.56;100.00;102734.67;1750244;82;26253;-77
2020/12/26 02:02:55;;;;;;;9.37;4.43;;;;;;;2.47;100.00;102743.50;1705120;84;26696;-75
2020/12/26 02:05:24;;;;;;;6.53;4.07;;;;;;;2.58;100.00;102731.20;1750148;80;26343;-75
2020/12/26 02:07:54;;;;;;;8.67;4.37;;;;;;;2.59;100.00;102719.20;1704785;84;26251;-75
2020/12/26 02:10:25;;;;;;;5.13;3.60;;;;;;;2.74;100.00;102725.02;1749986;81;26333;-75
2020/12/26 02:12:54;;;;;;;5.63;3.60;;;;;;;2.72;100.00;102720.26;1704906;84;26247;-76
2020/12/26 02:15:24;;;;;;;6.93;4.23;;;;;;;2.75;100.00;102713.53;1691866;84;26247;-76
2020/12/26 02:17:54;;;;;;;5.23;4.07;;;;;;;2.88;100.00;102710.98;1691802;85;26756;-77
2020/12/26 02:20:24;;;;;;;9.67;4.37;;;;;;;2.89;100.00;102696.74;1750188;82;26245;-76
2020/12/26 02:22:54;;;;;;;8.97;4.57;;;;;;;2.86;100.00;102701.25;1704800;84;26320;-77
2020/12/26 02:25:24;;;;;;;4.77;3.00;;;;;;;2.98;100.00;102694.23;1691445;85;26768;-77
2020/12/26 02:27:53;;;;;;;6.93;3.90;;;;;;;2.99;100.00;102689.08;1691850;85;26338;-77
2020/12/26 02:30:23;;;;;;;6.17;3.60;;;;;;;3.13;100.00;102677.21;1749758;82;26260;-77
2020/12/26 02:32:53;;;;;;;6.93;3.73;;;;;;;3.06;100.00;102672.17;1704666;84;26776;-76
2020/12/26 02:35:23;;;;;;;6.03;3.70;;;;;;;3.02;100.00;102682.69;1750264;82;26344;-75
2020/12/26 02:37:53;;;;;;;6.40;3.90;;;;;;;3.13;100.00;102676.70;1704750;84;26334;-76
2020/12/26 02:40:23;;;;;;;6.73;3.50;;;;;;;3.19;100.00;102675.09;1750227;82;26268;-76
2020/12/26 02:42:52;;;;;;;6.47;4.20;;;;;;;3.18;100.00;102672.86;1704818;84;26378;-76
2020/12/26 02:45:22;;;;;;;6.37;3.67;;;;;;;3.20;100.00;102673.53;1750367;81;26767;-76
2020/12/26 02:47:52;;;;;;;6.93;3.30;;;;;;;3.18;100.00;102672.00;1704832;84;26333;-76
2020/12/26 02:50:22;;;;;;;6.00;3.30;;;;;;;3.26;100.00;102670.52;1691643;85;26584;-75
2020/12/26 02:52:52;;;;;;;4.30;3.20;;;;;;;3.04;100.00;102675.61;1750293;80;26687;-75
2020/12/26 02:55:21;;;;;;;5.30;3.70;;;;;;;2.85;100.00;102655.11;1704811;84;26266;-75
2020/12/26 02:57:51;;;;;;;6.17;3.03;;;;;;;2.82;100.00;102652.75;1750366;82;26332;-76
2020/12/26 03:00:21;;;;;;;4.47;3.17;;;;;;;2.70;100.00;102646.87;1705017;84;26250;-76
2020/12/26 03:02:51;;;;;;;5.17;3.27;;;;;;;2.68;100.00;102638.00;1750313;82;26249;-76
2020/12/26 03:05:21;;;;;;;5.13;3.37;;;;;;;2.67;100.00;102636.28;1704763;82;26274;-76
2020/12/26 03:07:51;;;;;;;4.97;3.50;;;;;;;2.54;100.00;102641.58;1750224;82;26758;-75
2020/12/26 03:10:21;;;;;;;4.83;3.40;;;;;;;2.52;100.00;102649.67;1704681;84;26348;-76
2020/12/26 03:12:50;;;;;;;6.63;3.73;;;;;;;2.37;100.00;102655.13;1750160;82;26245;-76
2020/12/26 03:15:21;;;;;;;6.37;3.80;;;;;;;2.29;100.00;102654.70;1704690;84;26705;-76
2020/12/26 03:17:51;;;;;;;6.77;3.80;;;;;;;2.40;100.00;102652.52;1691827;85;26244;-76
2020/12/26 03:20:21;;;;;;;6.77;4.50;;;;;;;2.59;100.00;102650.09;1748646;80;26335;-76
2020/12/26 03:22:51;;;;;;;6.53;4.30;;;;;;;2.68;100.00;102646.74;1704839;84;26293;-76
2020/12/26 03:25:20;;;;;;;6.07;4.17;;;;;;;2.71;100.00;102640.86;1750215;81;26769;-76
2020/12/26 03:27:50;;;;;;;6.27;4.17;;;;;;;2.75;100.00;102634.81;1704724;84;26298;-76
2020/12/26 03:30:20;;;;;;;6.07;4.10;;;;;;;2.84;100.00;102630.59;1750388;81;26684;-76
2020/12/26 03:32:50;;;;;;;8.57;4.40;;;;;;;2.88;100.00;102621.78;1704849;84;26247;-76
2020/12/26 03:35:20;;;;;;;6.97;4.20;;;;;;;2.93;100.00;102624.81;1691683;85;26259;-76
2020/12/26 03:37:50;;;;;;;4.93;3.27;;;;;;;2.95;100.00;102624.62;1750208;82;26233;-76
2020/12/26 03:40:19;;;;;;;5.47;3.87;;;;;;;2.94;100.00;102627.04;1704891;84;26706;-76
2020/12/26 03:42:49;;;;;;;5.80;3.67;;;;;;;2.98;100.00;102629.73;1691638;85;26258;-76
2020/12/26 03:45:21;;;;;;;6.87;3.83;;;;;;;2.99;100.00;102628.17;1749738;80;26237;-76
2020/12/26 03:47:51;;;;;;;6.97;4.07;;;;;;;2.94;100.00;102620.17;1705104;84;26258;-76
2020/12/26 03:50:21;;;;;;;5.93;3.37;;;;;;;2.96;100.00;102624.94;1750209;82;26750;-76
2020/12/26 03:52:50;;;;;;;4.87;3.50;;;;;;;2.95;100.00;102615.84;1704769;84;26254;-77
2020/12/26 03:55:20;;;;;;;7.70;3.90;;;;;;;2.90;100.00;102605.98;1750343;82;26236;-75
2020/12/26 03:57:50;;;;;;;5.63;3.57;;;;;;;2.96;100.00;102607.95;1704761;84;26701;-76
2020/12/26 04:00:20;;;;;;;6.47;3.30;;;;;;;2.97;100.00;102600.56;1691786;85;26271;-76
2020/12/26 04:02:50;;;;;;;5.30;3.33;;;;;;;3.07;100.00;102607.47;1750512;82;26311;-76
2020/12/26 04:05:21;;;;;;;5.80;3.60;;;;;;;3.07;100.00;102603.35;1704812;82;26816;-76
2020/12/26 04:07:52;;;;;;;6.10;3.53;;;;;;;3.05;100.00;102609.55;1691703;85;26752;-76
2020/12/26 04:10:22;;;;;;;6.23;3.50;;;;;;;3.05;100.00;102602.68;1691812;85;26330;-75
2020/12/26 04:12:51;;;;;;;4.40;3.60;;;;;;;3.15;100.00;102604.61;1750317;82;26237;-75
2020/12/26 04:15:21;;;;;;;6.33;3.43;;;;;;;3.32;100.00;102597.50;1705156;84;26248;-75
2020/12/26 04:17:51;;;;;;;6.00;3.43;;;;;;;3.30;100.00;102598.20;1691779;84;26710;-75
2020/12/26 04:20:21;;;;;;;4.77;3.40;;;;;;;3.23;100.00;102607.75;1750407;82;26244;-76
2020/12/26 04:22:51;;;;;;;4.43;3.23;;;;;;;3.30;100.00;102613.30;1705177;84;26282;-75
2020/12/26 04:25:20;;;;;;;4.73;3.30;;;;;;;3.30;100.00;102603.17;1691534;85;26774;-76
2020/12/26 04:27:50;;;;;;;4.50;3.20;;;;;;;3.45;100.00;102593.52;1691748;84;26364;-76
2020/12/26 04:30:20;;;;;;;3.77;2.80;;;;;;;3.61;100.00;102595.48;1750372;81;26241;-76
2020/12/26 04:32:50;;;;;;;4.00;2.83;;;;;;;3.69;100.00;102593.11;1705090;84;26259;-75
2020/12/26 04:35:20;;;;;;;4.77;2.93;;;;;;;3.71;100.00;102582.78;1691807;85;26757;-76
2020/12/26 04:37:50;;;;;;;3.53;2.53;;;;;;;3.66;100.00;102580.62;1750267;81;26249;-76
2020/12/26 04:40:22;;;;;;;3.10;2.80;;;;;;;3.76;100.00;102571.20;1704725;84;26254;-76
2020/12/26 04:42:53;;;;;;;3.70;2.50;;;;;;;3.74;100.00;102564.52;1691623;85;26255;-75
2020/12/26 04:45:23;;;;;;;4.97;3.17;;;;;;;3.74;100.00;102567.78;1691838;84;26742;-76
2020/12/26 04:47:56;;;;;;;7.40;3.13;;;;;;;3.77;100.00;102560.51;1691908;84;26258;-76
2020/12/26 04:50:29;;;;;;;5.17;3.50;;;;;;;3.74;100.00;102556.27;1750344;82;26250;-76
2020/12/26 04:53:00;;;;;;;5.80;3.33;;;;;;;3.76;100.00;102552.81;1705572;83;26254;-77
2020/12/26 04:55:31;;;;;;;5.50;3.10;;;;;;;3.77;100.00;102545.39;1750316;82;26312;-77
2020/12/26 04:58:07;;;;;;;5.97;2.90;;;;;;;3.75;100.00;102540.11;1704700;84;26262;-76
2020/12/26 05:00:39;;;;;;;6.67;2.93;;;;;;;3.72;100.00;102538.30;1740569;81;930685;-77
2020/12/26 05:03:10;;;;;;;6.10;3.23;;;;;;;3.79;100.00;102544.68;1721047;83;26689;-77
2020/12/26 05:05:42;;;;;;;3.57;2.80;;;;;;;3.86;100.00;102533.20;1754054;82;26296;-77
2020/12/26 05:08:14;;;;;;;5.77;3.17;;;;;;;4.02;100.00;102532.37;1720578;83;26355;-77
2020/12/26 05:10:45;;;;;;;5.03;2.90;;;;;;;4.03;100.00;102533.22;1753885;82;26245;-76
2020/12/26 05:13:14;;;;;;;4.30;3.07;;;;;;;3.96;100.00;102536.47;1721278;83;26320;-77
2020/12/26 05:15:44;;;;;;;4.37;2.67;;;;;;;3.96;100.00;102530.97;1694265;84;26730;-76
2020/12/26 05:18:14;;;;;;;4.70;2.77;;;;;;;3.93;100.00;102525.36;1753987;82;26916;-77
2020/12/26 05:20:45;;;;;;;6.07;3.43;;;;;;;3.99;100.00;102522.30;1720856;83;26256;-77
2020/12/26 05:23:17;;;;;;;4.40;2.70;;;;;;;4.06;100.00;102522.66;1754012;82;26344;-77
2020/12/26 05:25:48;;;;;;;5.43;2.60;;;;;;;4.04;100.00;102522.03;1754155;81;26268;-77
2020/12/26 05:28:20;;;;;;;4.77;3.00;;;;;;;4.02;100.00;102511.75;1720501;83;26248;-76
2020/12/26 05:30:52;;;;;;;4.90;2.63;;;;;;;4.00;100.00;102508.37;1753569;82;26749;-77
2020/12/26 05:33:22;;;;;;;5.20;2.63;;;;;;;4.09;100.00;102510.44;1720905;83;26758;-77
2020/12/26 05:35:53;;;;;;;4.23;2.70;;;;;;;4.06;100.00;102503.42;1694150;85;26350;-76
2020/12/26 05:38:26;;;;;;;6.23;2.97;;;;;;;4.03;100.00;102502.98;1753936;82;26913;-76
2020/12/26 05:40:58;;;;;;;5.80;2.40;;;;;;;3.97;100.00;102500.53;1753935;81;26703;-75
2020/12/26 05:43:29;;;;;;;5.47;2.70;;;;;;;3.98;100.00;102498.08;1720781;83;26684;-75
2020/12/26 05:46:00;;;;;;;4.57;3.00;;;;;;;3.98;100.00;102498.08;1753974;82;26323;-76
2020/12/26 05:48:31;;;;;;;4.70;2.93;;;;;;;3.96;100.00;102491.10;1720506;83;26331;-76
2020/12/26 05:51:02;;;;;;;4.30;2.57;;;;;;;3.99;100.00;102487.41;1694210;84;26266;-77
2020/12/26 05:53:33;;;;;;;5.23;3.07;;;;;;;3.92;100.00;102482.94;1689758;84;26736;-77
2020/12/26 05:56:03;;;;;;;5.43;3.40;;;;;;;3.81;100.00;102470.59;1753952;81;26854;-77
2020/12/26 05:58:33;;;;;;;4.30;2.90;;;;;;;3.84;100.00;102479.83;1720534;83;26265;-77
2020/12/26 06:01:03;;;;;;;2.87;2.30;;;;;;;3.83;100.00;102472.62;1753854;82;26252;-77
2020/12/26 06:03:34;;;;;;;5.60;2.60;;;;;;;3.85;100.00;102474.63;1753841;82;26260;-77
2020/12/26 06:06:05;;;;;;;4.57;2.80;;;;;;;3.92;100.00;102471.41;1720626;83;26344;-77
2020/12/26 06:08:35;;;;;;;4.43;3.00;;;;;;;3.89;100.00;102461.36;1753817;82;26339;-77
2020/12/26 06:11:06;;;;;;;4.93;3.07;;;;;;;3.89;100.00;102453.96;1754026;82;26260;-77
2020/12/26 06:13:38;;;;;;;6.53;3.30;;;;;;;3.91;100.00;102447.72;1753681;82;26257;-76
2020/12/26 06:16:12;;;;;;;3.90;3.00;;;;;;;3.94;100.00;102447.30;1720529;83;26742;-76
2020/12/26 06:18:45;;;;;;;4.40;2.70;;;;;;;4.01;100.00;102451.48;1753843;82;26754;-76
2020/12/26 06:21:16;;;;;;;3.43;2.70;;;;;;;4.09;100.00;102448.56;1753420;81;26241;-76
2020/12/26 06:23:46;;;;;;;7.37;3.40;;;;;;;4.04;100.00;102445.05;1753888;81;26802;-76
2020/12/26 06:26:17;;;;;;;6.77;2.80;;;;;;;4.08;100.00;102437.23;1720620;83;26260;-77
2020/12/26 06:28:49;;;;;;;4.33;2.60;;;;;;;4.01;100.00;102438.59;1753980;82;26704;-76
2020/12/26 06:31:20;;;;;;;2.77;2.40;;;;;;;4.10;100.00;102426.37;1720621;83;26286;-75
2020/12/26 06:33:51;;;;;;;4.37;2.60;;;;;;;4.17;100.00;102422.27;1753622;82;26664;-76
2020/12/26 06:36:22;;;;;;;4.27;2.50;;;;;;;4.20;100.00;102427.87;1720495;83;26334;-76
2020/12/26 06:38:53;;;;;;;2.67;2.33;;;;;;;4.12;100.00;102426.15;1753936;82;26332;-77
2020/12/26 06:41:23;;;;;;;4.13;2.07;;;;;;;4.17;100.00;102423.64;1753734;82;26323;-77
2020/12/26 06:43:54;;;;;;;3.67;2.10;;;;;;;4.29;100.00;102423.37;1753890;82;26323;-76
2020/12/26 06:46:40;;;;;;;3.33;2.27;;;;;;;4.36;100.00;102425.64;1720571;83;26331;-76
2020/12/26 06:49:26;;;;;;;3.53;2.20;;;;;;;4.34;100.00;102418.62;1694241;84;26341;-77
2020/12/26 06:51:57;;;;;;;2.90;2.07;;;;;;;4.39;100.00;102409.23;1754028;82;26363;-77
2020/12/26 06:54:48;;;;;;;3.77;1.80;;;;;;;4.48;100.00;102408.85;1754171;81;26343;-76
2020/12/26 06:57:39;;;;;;;2.43;1.83;;;;;;;4.77;100.00;102397.16;1754065;81;26237;-76
2020/12/26 07:00:27;;;;;;;4.23;1.93;;;;;;;4.78;100.00;102399.72;1754113;82;26264;-76
2020/12/26 07:03:28;;;;;;;3.50;1.83;;;;;;;4.78;100.00;102394.20;1720561;83;26323;-77
2020/12/26 07:05:58;;;;;;;4.80;2.00;;;;;;;4.83;100.00;102390.83;1753703;82;26276;-77
2020/12/26 07:08:33;;;;;;;3.63;2.03;;;;;;;4.83;100.00;102380.66;1753972;82;26261;-76
2020/12/26 07:11:06;;;;;;;3.97;1.50;;;;;;;4.82;100.00;102372.61;1754048;82;26261;-77
2020/12/26 07:13:51;;;;;;;4.07;1.90;;;;;;;4.84;100.00;102371.84;1751506;81;26299;-75
2020/12/26 07:16:41;;;;;;;3.40;2.10;;;;;;;4.85;100.00;102373.02;1721256;83;26256;-74
2020/12/26 07:19:46;;;;;;;3.80;2.27;;;;;;;4.84;100.00;102366.34;1694234;84;26271;-74
2020/12/26 07:22:20;;;;;;;3.13;1.60;;;;;;;4.86;100.00;102360.11;1692708;84;26884;-73
2020/12/26 07:24:50;;;;;;;3.23;1.67;;;;;;;4.88;100.00;102353.33;1720370;83;26289;-74
2020/12/26 07:27:29;;;;;;;1.90;1.43;;;;;;;4.99;100.00;102341.70;1693998;85;26726;-74
2020/12/26 07:30:03;;;;;;;3.00;2.03;;;;;;;5.06;100.00;102347.19;1692648;84;26275;-73
2020/12/26 07:32:53;;;;;;;6.07;1.90;;;;;;;5.13;100.00;102340.31;1753871;82;26703;-73
2020/12/26 07:35:41;;;;;;;3.30;1.50;;;;;;;5.13;100.00;102330.67;1754003;82;26257;-73
2020/12/26 07:38:16;;;;;;;2.27;1.57;;;;;;;5.34;100.00;102323.02;1754097;82;26417;-73
2020/12/26 07:40:48;;;;;;;1.97;0.97;;;;;;;5.43;100.00;102303.79;1720547;83;26814;-72
2020/12/26 07:43:19;;;;;;;2.67;1.03;;;;;;;5.57;100.00;102312.02;1694236;84;26287;-72
2020/12/26 07:45:49;;;;;;;3.67;1.07;;;;;;;5.64;100.00;102302.70;1753617;82;26314;-74
2020/12/26 07:48:19;;;;;;;2.77;1.17;;;;;;;5.71;100.00;102294.39;1754095;81;26769;-75
2020/12/26 07:50:49;;;;;;;1.93;1.13;;;;;;;5.74;100.00;102282.38;1721064;83;26323;-73
2020/12/26 07:53:19;;;;;;;2.23;1.10;;;;;;;5.80;100.00;102280.15;1753930;82;26241;-74
2020/12/26 07:55:49;;;;;;;2.70;1.07;;;;;;;5.83;100.00;102286.59;1754057;81;26711;-71
2020/12/26 07:58:19;;;;;;;0.80;0.80;;;;;;;5.87;100.00;102289.26;1754069;81;26311;-73
2020/12/26 08:00:50;;;;;;;3.90;1.10;;;;;;;5.91;100.00;102282.23;1753966;82;26696;-74
2020/12/26 08:03:20;;;;;;;4.33;1.03;;;;;;;5.93;100.00;102280.12;1754042;82;26253;-74
2020/12/26 08:05:51;;;;;;;2.87;1.20;;;;;;;5.93;100.00;102287.55;1720453;83;26300;-75
2020/12/26 08:08:24;;;;;;;1.07;0.90;;;;;;;5.96;100.00;102291.23;1694087;84;26303;-71
2020/12/26 08:10:59;;;;;;;3.40;1.13;;;;;;;6.03;100.00;102283.80;1753988;82;26715;-74
2020/12/26 08:13:31;;;;;;;3.53;1.10;;;;;;;6.07;100.00;102293.84;1720726;83;26280;-76
2020/12/26 08:16:05;;;;;;;1.30;1.10;;;;;;;6.13;100.00;102300.69;1694346;85;26283;-72
2020/12/26 08:18:36;;;;;;;3.33;1.20;;;;;;;6.15;100.00;102293.05;1754059;82;26315;-72
2020/12/26 08:21:06;;;;;;;1.97;0.90;;;;;;;6.23;100.00;102300.22;1754036;82;26264;-72
2020/12/26 08:23:36;;;;;;;2.07;0.90;;;;;;;6.25;100.00;102297.54;1753998;82;26295;-75
2020/12/26 08:26:06;;;;;;;2.50;1.57;;;;;;;6.30;100.00;102296.34;1754058;82;26249;-74
2020/12/26 08:28:39;;;;;;;1.70;0.90;;;;;;;6.32;100.00;102303.89;1754073;81;26292;-73
2020/12/26 08:31:12;;;;;;;2.40;1.03;;;;;;;6.36;100.00;102302.38;1753945;82;26766;-73
2020/12/26 08:33:43;;;;;;;2.30;1.20;;;;;;;6.36;100.00;102294.63;1754008;82;26707;-74
2020/12/26 08:36:19;;;;;;;2.30;1.00;;;;;;;6.39;100.00;102283.98;1753915;82;26331;-73
2020/12/26 08:38:52;;;;;;;4.27;1.63;;;;;;;6.44;100.00;102280.55;1753933;81;26351;-74
2020/12/26 08:41:25;;;;;;;2.87;1.10;;;;;;;6.47;100.00;102268.20;1753936;82;26696;-73
2020/12/26 08:43:55;;;;;;;2.23;1.17;;;;;;;6.50;100.00;102266.41;1754004;82;26256;-74
2020/12/26 08:46:26;;;;;;;3.23;1.20;;;;;;;6.53;100.00;102260.42;1753972;82;26244;-74
2020/12/26 08:48:57;;;;;;;1.23;1.13;;;;;;;6.55;100.00;102241.70;1753862;81;26265;-74
2020/12/26 08:51:29;;;;;;;2.10;1.20;;;;;;;6.61;100.00;102241.67;1754290;81;26393;-72
2020/12/26 08:53:59;;;;;;;1.57;1.10;;;;;;;6.64;100.00;102234.30;1720579;83;26327;-71
2020/12/26 08:56:37;;;;;;;1.73;1.10;;;;;;;6.68;100.00;102223.65;1754000;82;26322;-72
2020/12/26 08:59:07;;;;;;;2.23;1.07;;;;;;;6.68;100.00;102222.27;1754064;82;26315;-73
2020/12/26 09:01:37;;;;;;;1.50;1.10;;;;;;;6.68;100.00;102228.64;1720672;83;26366;-72
2020/12/26 09:04:15;;;;;;;2.30;1.07;;;;;;;6.70;100.00;102223.75;1753945;82;26249;-71
2020/12/26 09:06:45;;;;;;;1.70;1.20;;;;;;;6.80;100.00;102224.06;1753972;82;26699;-74
2020/12/26 09:09:18;;;;;;;2.47;1.17;;;;;;;6.88;100.00;102209.67;1720624;83;26253;-72
2020/12/26 09:11:48;;;;;;;2.97;1.17;;;;;;;6.90;100.00;102207.52;1753596;82;26705;-72
2020/12/26 09:14:22;;;;;;;2.07;1.40;;;;;;;6.97;100.00;102217.98;1720733;83;26332;-72
2020/12/26 09:16:59;;;;;;;1.67;1.20;;;;;;;6.96;100.00;102214.37;1753954;82;26312;-72
2020/12/26 09:19:42;;;;;;;1.50;1.03;;;;;;;7.01;100.00;102213.69;1720954;83;26732;-72
2020/12/26 09:22:13;;;;;;;1.90;1.07;;;;;;;7.07;100.00;102214.13;1754027;82;26265;-72
2020/12/26 09:24:43;;;;;;;2.23;1.17;;;;;;;7.13;100.00;102220.98;1720661;83;26773;-73
2020/12/26 09:27:19;;;;;;;2.23;1.20;;;;;;;7.18;100.00;102211.48;1753893;82;26401;-72
2020/12/26 09:29:54;;;;;;;2.77;0.80;;;;;;;7.21;100.00;102212.92;1754015;81;26331;-73
2020/12/26 09:32:22;;;;;;;1.50;1.10;;;;;;;7.22;100.00;102215.47;1753291;82;26284;-72
2020/12/26 09:34:54;;;;;;;2.40;1.20;;;;;;;7.26;100.00;102215.31;1720589;83;26363;-72
2020/12/26 09:37:23;;;;;;;2.60;1.23;;;;;;;7.30;100.00;102196.34;1694185;85;26790;-72
2020/12/26 09:39:53;;;;;;;1.70;1.30;;;;;;;7.36;100.00;102194.02;1689008;85;26282;-74
2020/12/26 09:42:26;;;;;;;1.07;0.97;;;;;;;7.38;100.00;102184.12;1692629;85;26267;-74
2020/12/26 09:44:57;;;;;;;3.77;1.00;;;;;;;7.39;100.00;102181.67;1754024;82;26794;-74
2020/12/26 09:47:27;;;;;;;2.70;1.10;;;;;;;7.47;100.00;102186.89;1720529;83;26244;-73
2020/12/26 09:49:57;;;;;;;1.60;1.20;;;;;;;7.47;100.00;102164.77;1753940;82;26260;-72
2020/12/26 09:52:27;;;;;;;2.50;1.13;;;;;;;7.42;100.00;102161.86;1753955;81;26362;-73
2020/12/26 09:54:56;;;;;;;3.30;1.37;;;;;;;7.46;100.00;102165.30;1753484;82;26675;-72
2020/12/26 09:57:28;;;;;;;2.60;1.00;;;;;;;7.47;100.00;102177.22;1753985;82;26680;-72
2020/12/26 09:59:58;;;;;;;2.37;1.10;;;;;;;7.54;100.00;102177.96;1753949;82;26285;-72
2020/12/26 10:02:27;;;;;;;2.87;1.20;;;;;;;7.17;100.00;102099.25;1753731;82;26338;-73
2020/12/26 10:04:57;;;;;;;2.03;1.30;;;;;;;7.65;100.00;102176.66;1754499;81;26700;-74
2020/12/26 10:07:27;;;;;;;2.37;0.90;;;;;;;7.68;100.00;102165.12;1754009;81;26261;-73
2020/12/26 10:09:57;;;;;;;3.13;1.30;;;;;;;7.72;100.00;102152.50;1720558;83;26790;-73
2020/12/26 10:12:27;;;;;;;0.90;0.90;;;;;;;7.82;100.00;102156.09;1694070;85;26757;-75
2020/12/26 10:14:57;;;;;;;2.33;1.30;;;;;;;7.84;100.00;102154.45;1692816;84;26363;-74
2020/12/26 10:17:27;;;;;;;1.47;1.00;;;;;;;7.85;100.00;102151.47;1753933;82;26253;-74
2020/12/26 10:19:57;;;;;;;2.03;1.00;;;;;;;7.82;100.00;102151.95;1720676;83;26253;-73
2020/12/26 10:22:27;;;;;;;1.83;0.80;;;;;;;7.91;100.00;102141.39;1753964;81;26825;-72
2020/12/26 10:24:56;;;;;;;2.70;1.03;;;;;;;7.99;100.00;102144.66;1753973;82;26683;-74
2020/12/26 10:27:26;;;;;;;0.93;0.70;;;;;;;7.98;100.00;102138.82;1753104;82;26317;-73
2020/12/26 10:29:56;;;;;;;3.10;2.07;;;;;;;8.02;100.00;102130.34;1720594;83;26711;-74
2020/12/26 10:32:26;;;;;;;2.20;0.90;;;;;;;8.15;100.00;102119.06;1753917;82;26407;-76
2020/12/26 10:34:56;;;;;;;1.37;0.80;;;;;;;8.23;100.00;102120.09;1720504;83;26719;-75
2020/12/26 10:37:27;;;;;;;1.40;0.90;;;;;;;8.26;100.00;102111.84;1753927;82;26256;-75
2020/12/26 10:39:57;;;;;;;0.90;0.60;;;;;;;8.29;100.00;102100.84;1720527;83;26676;-74
2020/12/26 10:42:27;;;;;;;1.43;0.70;;;;;;;8.40;100.00;102093.95;1753965;82;26376;-78
2020/12/26 10:44:57;;;;;;;0.97;0.73;;;;;;;8.51;100.00;102091.75;1753961;82;26256;-79
2020/12/26 10:47:27;;;;;;;2.20;0.80;;;;;;;8.62;100.00;102082.58;1754067;81;26244;-82
2020/12/26 10:49:57;;;;;;;3.37;0.80;;;;;;;8.71;100.00;102083.05;1720658;83;26253;-75
2020/12/26 10:52:27;;;;;;;1.07;0.60;;;;;;;8.69;100.00;102070.81;1753801;82;26347;-76
2020/12/26 10:54:58;;;;;;;0.60;0.60;;;;;;;8.78;100.00;102056.58;1753900;81;26319;-76
2020/12/26 10:57:28;;;;;;;2.97;0.90;;;;;;;8.85;100.00;102044.84;1720492;83;26237;-75
2020/12/26 10:59:58;;;;;;;18.30;10.07;;;;;;;8.89;100.00;102039.95;1753925;82;26378;-74
2020/12/26 11:02:28;;;;;;;21.03;9.60;;;;;;;9.00;100.00;102029.37;1753996;81;26240;-73
2020/12/26 11:04:58;;;;;;;1.40;1.20;;;;;;;9.06;100.00;102011.77;1753826;81;26816;-70
2020/12/26 11:07:27;;;;;;;1.50;0.60;;;;;;;9.17;100.00;102011.95;1754119;82;26422;-73
2020/12/26 11:09:57;;;;;;;2.30;0.70;;;;;;;9.17;100.00;102008.63;1754141;81;26244;-72
2020/12/26 11:12:28;;;;;;;0.63;0.63;;;;;;;9.20;100.00;102003.97;1754055;82;26440;-72
2020/12/26 11:14:58;;;;;;;1.90;0.50;;;;;;;9.25;100.00;101986.05;1720638;83;26688;-73
2020/12/26 11:17:28;;;;;;;0.70;0.60;;;;;;;9.30;100.00;101979.77;1754008;82;26283;-73
2020/12/26 11:19:59;;;;;;;2.37;0.50;;;;;;;9.33;100.00;101970.94;1754117;82;26276;-73
2020/12/26 11:22:29;;;;;;;2.20;0.67;;;;;;;9.31;100.00;101955.95;1720547;83;26296;-74
2020/12/26 11:24:58;;;;;;;0.87;0.47;;;;;;;9.34;100.00;101953.22;1753897;82;26695;-73
2020/12/26 11:27:28;;;;;;;1.77;0.67;;;;;;;9.37;100.00;101942.45;1753708;82;26787;-74
2020/12/26 11:30:00;;;;;;;0.60;0.40;;;;;;;9.38;100.00;101931.67;1754053;82;26288;-73
2020/12/26 11:32:31;;;;;;;3.50;1.40;;;;;;;9.42;100.00;101925.06;1753954;82;26750;-74
2020/12/26 11:35:00;;;;;;;0.83;0.40;;;;;;;9.47;100.00;101930.70;1720560;83;26296;-73
2020/12/26 11:37:31;;;;;;;0.63;0.50;;;;;;;9.47;100.00;101903.81;1753962;82;26311;-73
2020/12/26 11:40:01;;;;;;;3.67;0.40;;;;;;;9.53;100.00;101893.66;1753982;82;26722;-73
2020/12/26 11:42:31;;;;;;;1.77;0.50;;;;;;;9.52;100.00;101888.66;1720668;83;26253;-73